createdAt,value
2022-10-12T00:01:07.923Z,9.17
2022-10-12T00:03:37.505Z,9.40
2022-10-12T00:06:07.673Z,9.90
2022-10-12T00:08:38.739Z,10.30
2022-10-12T00:11:08.043Z,10.20
2022-10-12T00:13:36.222Z,9.53
2022-10-12T00:16:04.658Z,10.10
2022-10-12T00:18:32.861Z,10.33
2022-10-12T00:21:07.881Z,9.63
2022-10-12T00:23:37.087Z,9.30
2022-10-12T00:26:06.542Z,9.60
2022-10-12T00:28:38.079Z,9.10
2022-10-12T00:31:09.286Z,10.70
2022-10-12T00:33:38.660Z,10.27
2022-10-12T00:36:16.178Z,8.90
2022-10-12T00:38:44.812Z,9.03
2022-10-12T00:41:13.754Z,9.00
2022-10-12T00:43:43.864Z,9.27
2022-10-12T00:46:15.633Z,8.53
2022-10-12T00:48:44.378Z,8.93
2022-10-12T00:51:14.363Z,8.20
2022-10-12T00:53:44.800Z,9.43
2022-10-12T00:56:16.534Z,9.50
2022-10-12T00:58:44.776Z,8.67
2022-10-12T01:01:12.929Z,9.20
2022-10-12T01:03:41.302Z,11.07
2022-10-12T01:06:09.372Z,10.97
2022-10-12T01:08:39.446Z,9.30
2022-10-12T01:11:07.662Z,8.80
2022-10-12T01:13:35.712Z,10.67
2022-10-12T01:16:08.793Z,10.30
2022-10-12T01:18:43.180Z,10.40
2022-10-12T01:21:16.694Z,10.77
2022-10-12T01:24:06.403Z,10.10
2022-10-12T01:27:13.243Z,10.00
2022-10-12T01:30:01.680Z,9.37
2022-10-12T01:32:32.930Z,9.80
2022-10-12T01:35:04.177Z,10.67
2022-10-12T01:37:39.638Z,9.90
2022-10-12T01:40:11.827Z,10.00
2022-10-12T01:42:41.810Z,11.27
2022-10-12T01:45:13.085Z,9.33
2022-10-12T01:47:42.786Z,10.00
2022-10-12T01:50:13.519Z,9.90
2022-10-12T01:52:46.997Z,9.70
2022-10-12T01:55:30.510Z,10.00
2022-10-12T01:58:14.947Z,9.53
2022-10-12T02:00:49.248Z,9.57
2022-10-12T02:03:21.654Z,9.60
2022-10-12T02:05:52.097Z,10.40
2022-10-12T02:08:24.359Z,10.70
2022-10-12T02:10:56.515Z,9.83
2022-10-12T02:13:26.536Z,9.43
2022-10-12T02:15:56.268Z,10.10
2022-10-12T02:18:25.727Z,9.90
2022-10-12T02:20:55.422Z,10.40
2022-10-12T02:23:25.021Z,9.53
2022-10-12T02:25:54.599Z,9.67
2022-10-12T02:28:24.754Z,9.30
2022-10-12T02:30:58.893Z,9.63
2022-10-12T02:33:30.073Z,9.17
2022-10-12T02:36:00.246Z,9.87
2022-10-12T02:38:31.845Z,9.77
2022-10-12T02:41:02.505Z,10.23
2022-10-12T02:43:36.091Z,9.87
2022-10-12T02:46:06.426Z,9.20
2022-10-12T02:48:35.506Z,10.13
2022-10-12T02:51:04.838Z,9.07
2022-10-12T02:53:32.931Z,9.40
2022-10-12T02:56:03.814Z,8.80
2022-10-12T02:58:31.881Z,9.37
2022-10-12T03:01:00.159Z,8.83
2022-10-12T03:03:29.834Z,7.90
2022-10-12T03:05:57.947Z,7.93
2022-10-12T03:08:26.010Z,8.00
2022-10-12T03:10:54.123Z,8.60
2022-10-12T03:13:22.175Z,7.93
2022-10-12T03:15:50.232Z,7.50
2022-10-12T03:18:19.094Z,8.33
2022-10-12T03:20:50.452Z,7.23
2022-10-12T03:23:18.469Z,7.47
2022-10-12T03:25:46.561Z,8.20
2022-10-12T03:28:14.690Z,7.17
2022-10-12T03:30:43.696Z,8.00
2022-10-12T03:33:11.765Z,7.40
2022-10-12T03:35:39.831Z,7.17
2022-10-12T03:38:09.219Z,7.03
2022-10-12T03:40:37.272Z,6.27
2022-10-12T03:43:05.295Z,6.77
2022-10-12T03:45:33.481Z,6.87
2022-10-12T03:48:04.933Z,6.93
2022-10-12T03:50:34.947Z,7.13
2022-10-12T03:53:03.249Z,6.63
2022-10-12T03:55:32.895Z,6.80
2022-10-12T03:58:01.027Z,6.63
2022-10-12T04:00:29.259Z,6.33
2022-10-12T04:02:57.295Z,6.10
2022-10-12T04:05:25.357Z,6.50
2022-10-12T04:07:53.470Z,6.47
2022-10-12T04:10:21.568Z,5.90
2022-10-12T04:12:50.984Z,6.30
2022-10-12T04:15:19.591Z,6.00
2022-10-12T04:17:47.803Z,5.40
2022-10-12T04:20:15.879Z,6.20
2022-10-12T04:22:43.944Z,6.90
2022-10-12T04:25:12.818Z,6.60
2022-10-12T04:27:41.236Z,6.17
2022-10-12T04:30:12.703Z,6.13
2022-10-12T04:32:40.781Z,5.47
2022-10-12T04:35:09.203Z,6.13
2022-10-12T04:37:37.519Z,6.10
2022-10-12T04:40:06.755Z,7.90
2022-10-12T04:42:34.804Z,6.00
2022-10-12T04:45:02.879Z,6.50
2022-10-12T04:47:32.344Z,6.40
2022-10-12T04:50:00.408Z,5.60
2022-10-12T04:52:28.778Z,6.40
2022-10-12T04:54:56.794Z,6.40
2022-10-12T04:57:24.938Z,5.93
2022-10-12T04:59:52.972Z,6.73
2022-10-12T05:02:21.043Z,8.03
2022-10-12T05:04:50.454Z,7.90
2022-10-12T05:07:18.685Z,7.40
2022-10-12T05:09:46.715Z,7.20
2022-10-12T05:12:14.874Z,7.00
2022-10-12T05:14:44.290Z,6.97
2022-10-12T05:17:12.696Z,6.57
2022-10-12T05:19:40.721Z,7.00
2022-10-12T05:22:10.138Z,7.20
2022-10-12T05:24:38.381Z,7.00
2022-10-12T05:27:06.460Z,8.10
2022-10-12T05:29:34.560Z,7.50
2022-10-12T05:32:02.649Z,8.27
2022-10-12T05:34:30.801Z,7.10
2022-10-12T05:36:59.358Z,6.53
2022-10-12T05:39:28.881Z,6.63
2022-10-12T05:41:56.943Z,7.33
2022-10-12T05:44:24.980Z,7.00
2022-10-12T05:46:53.173Z,6.63
2022-10-12T05:49:21.264Z,6.40
2022-10-12T05:51:49.384Z,6.40
2022-10-12T05:54:17.605Z,6.00
2022-10-12T05:56:47.124Z,5.93
2022-10-12T05:59:15.304Z,6.03
2022-10-12T06:01:43.489Z,6.10
2022-10-12T06:04:13.006Z,6.23
2022-10-12T06:06:41.309Z,5.73
2022-10-12T06:09:09.486Z,6.40
2022-10-12T06:11:37.534Z,6.33
2022-10-12T06:14:07.097Z,6.23
2022-10-12T06:16:35.183Z,6.03
2022-10-12T06:19:03.529Z,6.67
2022-10-12T06:21:33.960Z,5.90
2022-10-12T06:24:02.577Z,6.00
2022-10-12T06:26:30.774Z,5.87
2022-10-12T06:29:00.759Z,6.10
2022-10-12T06:31:30.579Z,5.77
2022-10-12T06:33:58.806Z,6.13
2022-10-12T06:36:27.159Z,5.80
2022-10-12T06:38:55.300Z,6.00
2022-10-12T06:41:25.809Z,6.40
2022-10-12T06:43:53.894Z,6.37
2022-10-12T06:46:22.045Z,7.50
2022-10-12T06:48:51.546Z,5.87
2022-10-12T06:51:19.621Z,6.57
2022-10-12T06:53:47.675Z,5.63
2022-10-12T06:56:15.786Z,4.50
2022-10-12T06:58:43.892Z,5.73
2022-10-12T07:01:12.039Z,5.77
2022-10-12T07:03:40.197Z,5.03
2022-10-12T07:06:12.179Z,5.20
2022-10-12T07:08:41.210Z,4.90
2022-10-12T07:11:11.117Z,5.27
2022-10-12T07:13:39.448Z,5.23
2022-10-12T07:16:08.144Z,5.33
2022-10-12T07:18:36.615Z,4.83
2022-10-12T07:21:04.972Z,6.07
2022-10-12T07:23:35.361Z,6.07
2022-10-12T07:26:03.395Z,5.30
2022-10-12T07:28:31.547Z,4.90
2022-10-12T07:31:03.205Z,4.90
2022-10-12T07:33:35.192Z,5.30
2022-10-12T07:36:13.871Z,5.67
2022-10-12T07:38:45.880Z,5.30
2022-10-12T07:41:14.592Z,5.30
2022-10-12T07:43:43.182Z,5.40
2022-10-12T07:46:11.586Z,5.73
2022-10-12T07:48:45.684Z,5.37
2022-10-12T07:51:18.359Z,5.17
2022-10-12T07:53:48.013Z,6.00
2022-10-12T07:56:16.302Z,6.13
2022-10-12T07:58:44.857Z,5.40
2022-10-12T08:01:13.032Z,5.03
2022-10-12T08:03:41.208Z,5.80
2022-10-12T08:06:10.661Z,5.63
2022-10-12T08:08:38.970Z,5.53
2022-10-12T08:11:08.883Z,5.00
2022-10-12T08:13:37.825Z,6.10
2022-10-12T08:16:07.436Z,5.90
2022-10-12T08:18:35.650Z,5.63
2022-10-12T08:21:05.514Z,4.80
2022-10-12T08:23:33.611Z,5.70
2022-10-12T08:26:01.696Z,5.77
2022-10-12T08:28:31.287Z,5.50
2022-10-12T08:30:59.671Z,4.80
2022-10-12T08:33:30.387Z,5.20
2022-10-12T08:35:58.452Z,5.90
2022-10-12T08:38:26.613Z,5.70
2022-10-12T08:40:59.105Z,5.93
2022-10-12T08:43:37.577Z,5.83
2022-10-12T08:46:06.002Z,5.60
2022-10-12T08:48:37.104Z,5.80
2022-10-12T08:51:09.386Z,5.30
2022-10-12T08:53:52.629Z,5.40
2022-10-12T08:56:21.354Z,5.33
2022-10-12T08:58:52.180Z,6.00
2022-10-12T09:01:26.966Z,5.80
2022-10-12T09:04:10.083Z,4.80
2022-10-12T09:06:42.049Z,5.27
2022-10-12T09:09:24.733Z,5.63
2022-10-12T09:12:05.233Z,5.60
2022-10-12T09:14:36.991Z,5.87
2022-10-12T09:17:23.379Z,5.97
2022-10-12T09:19:57.360Z,5.10
2022-10-12T09:22:25.514Z,5.47
2022-10-12T09:24:53.575Z,5.53
2022-10-12T09:27:22.974Z,4.80
2022-10-12T09:29:57.640Z,5.13
2022-10-12T09:32:37.048Z,5.30
2022-10-12T09:35:05.830Z,5.13
2022-10-12T09:37:34.813Z,5.40
2022-10-12T09:40:03.994Z,4.40
2022-10-12T09:42:33.506Z,5.30
2022-10-12T09:45:14.365Z,6.70
2022-10-12T09:47:42.709Z,5.57
2022-10-12T09:50:10.818Z,5.37
2022-10-12T09:52:44.251Z,5.40
2022-10-12T09:55:24.841Z,4.97
2022-10-12T09:57:55.686Z,5.10
2022-10-12T10:00:28.134Z,5.30
2022-10-12T10:02:56.987Z,5.40
2022-10-12T10:05:27.558Z,5.03
2022-10-12T10:08:15.973Z,5.20
2022-10-12T10:10:49.228Z,6.37
2022-10-12T10:13:17.407Z,5.40
2022-10-12T10:15:50.183Z,5.13
2022-10-12T10:18:23.520Z,5.87
2022-10-12T10:20:53.119Z,5.53
2022-10-12T10:23:27.083Z,5.23
2022-10-12T10:25:58.340Z,5.70
2022-10-12T10:28:30.604Z,4.80
2022-10-12T10:31:03.037Z,4.67
2022-10-12T10:33:33.784Z,5.13
2022-10-12T10:36:05.305Z,6.20
2022-10-12T10:38:46.831Z,5.23
2022-10-12T10:41:18.423Z,5.40
2022-10-12T10:43:48.560Z,5.20
2022-10-12T10:46:26.560Z,5.87
2022-10-12T10:48:58.747Z,4.67
2022-10-12T10:51:43.028Z,5.23
2022-10-12T10:54:16.992Z,5.33
2022-10-12T10:56:47.730Z,5.20
2022-10-12T10:59:28.990Z,5.33
2022-10-12T11:02:03.075Z,5.10
2022-10-12T11:04:36.258Z,4.47
2022-10-12T11:07:11.721Z,5.03
2022-10-12T11:09:42.864Z,5.20
2022-10-12T11:12:17.797Z,4.90
2022-10-12T11:14:47.490Z,6.23
2022-10-12T11:17:21.404Z,6.73
2022-10-12T11:19:53.230Z,4.93
2022-10-12T11:22:25.004Z,5.50
2022-10-12T11:24:56.084Z,5.30
2022-10-12T11:27:28.688Z,5.67
2022-10-12T11:30:09.442Z,5.70
2022-10-12T11:32:42.839Z,4.97
2022-10-12T11:35:17.304Z,4.83
2022-10-12T11:37:56.345Z,4.40
2022-10-12T11:40:55.482Z,5.40
2022-10-12T11:43:19.661Z,5.20
2022-10-12T11:45:49.565Z,5.23
2022-10-12T11:48:26.990Z,4.40
2022-10-12T11:50:59.973Z,4.23
2022-10-12T11:53:36.447Z,4.30
2022-10-12T11:56:09.707Z,4.60
2022-10-12T11:58:59.938Z,4.93
2022-10-12T12:01:46.585Z,4.23
2022-10-12T12:04:44.363Z,4.83
2022-10-12T12:07:44.988Z,5.27
2022-10-12T12:10:44.437Z,3.97
2022-10-12T12:13:22.772Z,4.13
2022-10-12T12:16:31.882Z,3.80
2022-10-12T12:19:37.902Z,4.10
2022-10-12T12:22:20.226Z,3.77
2022-10-12T12:25:00.292Z,4.20
2022-10-12T12:27:34.867Z,4.67
2022-10-12T12:30:07.116Z,3.80
2022-10-12T12:32:45.104Z,4.20
2022-10-12T12:35:23.805Z,4.03
2022-10-12T12:38:03.051Z,4.03
2022-10-12T12:40:31.289Z,3.63
2022-10-12T12:43:22.401Z,3.63
2022-10-12T12:45:58.002Z,4.50
2022-10-12T12:49:00.001Z,3.67
2022-10-12T12:51:38.051Z,4.03
2022-10-12T12:54:08.228Z,3.73
2022-10-12T12:56:42.460Z,3.83
2022-10-12T12:59:23.334Z,3.63
2022-10-12T13:02:06.988Z,3.63
2022-10-12T13:04:51.812Z,3.90
2022-10-12T13:07:37.069Z,4.10
2022-10-12T13:10:14.775Z,3.53
2022-10-12T13:13:03.800Z,4.07
2022-10-12T13:15:45.077Z,4.33
2022-10-12T13:18:47.169Z,4.60
2022-10-12T13:21:19.330Z,4.20
2022-10-12T13:23:50.743Z,4.60
2022-10-12T13:26:24.539Z,3.93
2022-10-12T13:28:54.056Z,4.20
2022-10-12T13:31:26.667Z,3.67
2022-10-12T13:34:00.173Z,3.87
2022-10-12T13:36:30.262Z,4.27
2022-10-12T13:39:09.426Z,4.10
2022-10-12T13:41:38.376Z,4.20
2022-10-12T13:44:07.356Z,4.43
2022-10-12T13:46:38.479Z,4.23
2022-10-12T13:49:17.443Z,4.50
2022-10-12T13:51:47.824Z,4.47
2022-10-12T13:54:23.053Z,3.87
2022-10-12T13:56:55.915Z,4.93
2022-10-12T13:59:25.957Z,4.47
2022-10-12T14:01:57.289Z,4.07
2022-10-12T14:04:29.847Z,4.03
2022-10-12T14:07:04.131Z,4.37
2022-10-12T14:09:40.467Z,4.47
2022-10-12T14:12:10.104Z,4.70
2022-10-12T14:14:39.214Z,5.23
2022-10-12T14:17:09.098Z,4.57
2022-10-12T14:19:45.100Z,5.10
2022-10-12T14:22:20.535Z,5.10
2022-10-12T14:24:50.816Z,4.20
2022-10-12T14:27:24.892Z,5.00
2022-10-12T14:29:55.419Z,4.93
2022-10-12T14:32:42.191Z,6.23
2022-10-12T14:35:22.042Z,5.47
2022-10-12T14:37:51.838Z,5.63
2022-10-12T14:40:40.996Z,5.10
2022-10-12T14:43:24.346Z,5.70
2022-10-12T14:45:53.357Z,6.10
2022-10-12T14:48:23.772Z,6.43
2022-10-12T14:50:52.221Z,6.10
2022-10-12T14:53:22.536Z,5.77
2022-10-12T14:55:54.847Z,5.90
2022-10-12T14:58:24.469Z,6.20
2022-10-12T15:00:52.613Z,5.70
2022-10-12T15:03:21.897Z,6.50
2022-10-12T15:05:52.355Z,6.37
2022-10-12T15:08:20.439Z,6.80
2022-10-12T15:10:53.008Z,6.33
2022-10-12T15:13:21.094Z,6.20
2022-10-12T15:15:52.223Z,5.27
2022-10-12T15:18:21.788Z,6.23
2022-10-12T15:20:50.194Z,6.53
2022-10-12T15:23:19.837Z,6.00
2022-10-12T15:25:54.902Z,6.40
2022-10-12T15:28:24.669Z,6.30
2022-10-12T15:31:15.763Z,6.87
2022-10-12T15:33:45.812Z,6.47
2022-10-12T15:36:14.959Z,6.87
2022-10-12T15:38:43.719Z,6.80
2022-10-12T15:41:17.684Z,6.83
2022-10-12T15:43:46.137Z,5.63
2022-10-12T15:46:14.376Z,6.40
2022-10-12T15:48:44.046Z,6.20
2022-10-12T15:51:22.811Z,7.57
2022-10-12T15:53:51.619Z,7.97
2022-10-12T15:56:21.419Z,7.80
2022-10-12T15:58:49.863Z,6.93
2022-10-12T16:01:19.431Z,7.63
2022-10-12T16:03:48.172Z,7.80
2022-10-12T16:06:16.542Z,7.80
2022-10-12T16:08:44.703Z,7.87
2022-10-12T16:11:14.425Z,8.03
2022-10-12T16:13:51.079Z,8.17
2022-10-12T16:16:22.465Z,7.77
2022-10-12T16:18:51.512Z,8.47
2022-10-12T16:21:19.631Z,8.67
2022-10-12T16:23:47.849Z,7.87
2022-10-12T16:26:16.562Z,9.20
2022-10-12T16:28:46.062Z,8.20
2022-10-12T16:31:17.943Z,8.37
2022-10-12T16:33:46.517Z,8.70
2022-10-12T16:36:16.377Z,8.70
2022-10-12T16:38:44.948Z,7.90
2022-10-12T16:41:14.754Z,8.70
2022-10-12T16:43:44.540Z,7.93
2022-10-12T16:46:14.067Z,7.80
2022-10-12T16:48:42.144Z,8.40
2022-10-12T16:51:11.389Z,8.33
2022-10-12T16:53:42.263Z,8.77
2022-10-12T16:56:10.706Z,8.30
2022-10-12T16:58:38.898Z,9.33
2022-10-12T17:01:11.245Z,9.03
2022-10-12T17:03:41.155Z,8.60
2022-10-12T17:06:10.031Z,9.13
2022-10-12T17:08:39.339Z,8.83
2022-10-12T17:11:09.094Z,9.70
2022-10-12T17:13:41.522Z,9.27
2022-10-12T17:16:25.148Z,9.50
2022-10-12T17:18:59.162Z,9.40
2022-10-12T17:21:28.051Z,9.17
2022-10-12T17:23:57.534Z,9.63
2022-10-12T17:26:26.649Z,10.13
2022-10-12T17:28:55.252Z,10.67
2022-10-12T17:31:24.302Z,9.90
2022-10-12T17:33:52.878Z,10.47
2022-10-12T17:36:27.979Z,11.13
2022-10-12T17:38:58.633Z,11.30
2022-10-12T17:41:27.857Z,10.93
2022-10-12T17:43:56.979Z,10.83
2022-10-12T17:46:25.316Z,10.40
2022-10-12T17:48:53.898Z,11.03
2022-10-12T17:51:25.128Z,12.60
2022-10-12T17:53:53.914Z,13.37
2022-10-12T17:56:22.403Z,14.80
2022-10-12T17:58:55.769Z,16.50
2022-10-12T18:01:25.681Z,17.47
2022-10-12T18:03:55.489Z,14.77
2022-10-12T18:06:27.632Z,14.07
2022-10-12T18:08:58.014Z,13.57
2022-10-12T18:11:27.809Z,12.50
2022-10-12T18:13:57.725Z,11.57
2022-10-12T18:16:27.994Z,12.97
2022-10-12T18:18:58.017Z,11.57
2022-10-12T18:21:29.511Z,12.00
2022-10-12T18:23:58.027Z,12.33
2022-10-12T18:26:28.151Z,13.33
2022-10-12T18:28:57.939Z,12.20
2022-10-12T18:31:28.136Z,13.13
2022-10-12T18:33:58.851Z,12.17
2022-10-12T18:36:29.416Z,12.97
2022-10-12T18:39:02.024Z,12.47
2022-10-12T18:41:31.726Z,12.53
2022-10-12T18:44:02.478Z,12.73
2022-10-12T18:46:33.416Z,12.00
2022-10-12T18:49:05.213Z,11.80
2022-10-12T18:51:39.998Z,13.00
2022-10-12T18:54:13.296Z,11.90
2022-10-12T18:56:43.114Z,12.30
2022-10-12T18:59:13.571Z,12.13
2022-10-12T19:01:44.288Z,12.30
2022-10-12T19:04:13.947Z,12.50
2022-10-12T19:06:53.257Z,12.43
2022-10-12T19:09:26.109Z,12.30
2022-10-12T19:11:55.699Z,12.37
2022-10-12T19:14:25.898Z,11.60
2022-10-12T19:16:56.239Z,12.47
2022-10-12T19:19:25.658Z,13.03
2022-10-12T19:21:57.004Z,12.13
2022-10-12T19:24:28.922Z,12.17
2022-10-12T19:27:00.284Z,12.50
2022-10-12T19:29:30.178Z,12.83
2022-10-12T19:32:00.545Z,11.40
2022-10-12T19:34:30.108Z,11.87
2022-10-12T19:37:01.305Z,10.73
2022-10-12T19:39:32.681Z,12.70
2022-10-12T19:42:02.102Z,11.07
2022-10-12T19:44:31.578Z,11.20
2022-10-12T19:47:00.516Z,12.30
2022-10-12T19:49:34.382Z,12.43
2022-10-12T19:52:07.140Z,11.53
2022-10-12T19:54:36.724Z,11.37
2022-10-12T19:57:06.661Z,13.10
2022-10-12T19:59:35.781Z,16.80
2022-10-12T20:02:04.833Z,16.87
2022-10-12T20:04:34.403Z,18.27
2022-10-12T20:07:03.633Z,16.70
2022-10-12T20:09:34.642Z,14.80
2022-10-12T20:12:03.168Z,13.23
2022-10-12T20:14:31.491Z,12.83
2022-10-12T20:16:59.936Z,13.10
2022-10-12T20:19:28.255Z,12.47
2022-10-12T20:21:56.454Z,12.10
2022-10-12T20:24:24.700Z,12.17
2022-10-12T20:26:54.236Z,11.93
2022-10-12T20:29:22.271Z,12.10
2022-10-12T20:31:50.423Z,12.80
2022-10-12T20:34:18.518Z,11.33
2022-10-12T20:36:46.617Z,13.20
2022-10-12T20:39:14.685Z,11.50
2022-10-12T20:41:42.785Z,12.07
2022-10-12T20:44:12.460Z,13.37
2022-10-12T20:46:40.571Z,12.87
2022-10-12T20:49:08.661Z,12.80
2022-10-12T20:51:40.040Z,12.87
2022-10-12T20:54:09.250Z,12.40
2022-10-12T20:56:41.788Z,11.67
2022-10-12T20:59:10.616Z,13.30
2022-10-12T21:01:40.374Z,14.60
2022-10-12T21:04:10.189Z,14.27
2022-10-12T21:06:39.245Z,14.17
2022-10-12T21:09:07.402Z,13.80
2022-10-12T21:11:35.637Z,14.70
2022-10-12T21:14:03.724Z,13.70
2022-10-12T21:16:33.393Z,13.93
2022-10-12T21:19:02.782Z,13.03
2022-10-12T21:21:30.918Z,13.50
2022-10-12T21:24:00.453Z,13.33
2022-10-12T21:26:30.756Z,11.70
2022-10-12T21:29:00.574Z,13.40
2022-10-12T21:31:32.631Z,11.83
2022-10-12T21:34:03.351Z,12.07
2022-10-12T21:36:32.882Z,11.77
2022-10-12T21:39:00.993Z,11.30
2022-10-12T21:41:30.088Z,10.77
2022-10-12T21:43:59.120Z,11.10
2022-10-12T21:46:29.073Z,11.50
2022-10-12T21:48:57.552Z,10.60
2022-10-12T21:51:27.630Z,10.20
2022-10-12T21:53:55.775Z,10.83
2022-10-12T21:56:25.200Z,10.67
2022-10-12T21:58:54.842Z,11.10
2022-10-12T22:01:24.583Z,11.20
2022-10-12T22:03:54.430Z,9.80
2022-10-12T22:06:23.774Z,10.57
2022-10-12T22:08:55.990Z,10.33
2022-10-12T22:11:24.804Z,10.73
2022-10-12T22:13:53.056Z,9.60
2022-10-12T22:16:21.246Z,10.07
2022-10-12T22:18:49.300Z,10.17
2022-10-12T22:21:19.271Z,10.27
2022-10-12T22:23:47.762Z,9.77
2022-10-12T22:26:18.847Z,9.93
2022-10-12T22:28:54.397Z,8.13
2022-10-12T22:31:24.735Z,8.73
2022-10-12T22:33:53.152Z,9.47
2022-10-12T22:36:21.478Z,8.90
2022-10-12T22:38:49.511Z,9.47
2022-10-12T22:41:20.544Z,8.37
2022-10-12T22:43:49.337Z,9.57
2022-10-12T22:46:17.822Z,9.43
2022-10-12T22:48:45.912Z,8.57
2022-10-12T22:51:16.755Z,9.50
2022-10-12T22:53:44.877Z,8.50
2022-10-12T22:56:15.992Z,8.43
2022-10-12T22:58:48.030Z,8.27
2022-10-12T23:01:18.214Z,9.93
2022-10-12T23:03:46.351Z,8.67
2022-10-12T23:06:16.244Z,8.90
2022-10-12T23:08:44.628Z,8.30
2022-10-12T23:11:14.349Z,9.10
2022-10-12T23:13:43.619Z,8.33
2022-10-12T23:16:14.812Z,9.30
2022-10-12T23:18:43.097Z,9.17
2022-10-12T23:21:12.928Z,8.43
2022-10-12T23:23:42.097Z,9.20
2022-10-12T23:26:12.548Z,8.60
2022-10-12T23:28:41.021Z,8.10
2022-10-12T23:31:20.194Z,8.70
2022-10-12T23:33:48.671Z,9.03
2022-10-12T23:36:18.551Z,8.30
2022-10-12T23:38:46.831Z,8.80
2022-10-12T23:41:15.251Z,8.90
2022-10-12T23:43:43.518Z,7.63
2022-10-12T23:46:12.383Z,8.80
2022-10-12T23:48:42.088Z,9.67
2022-10-12T23:51:10.454Z,9.07
2022-10-12T23:53:39.368Z,9.93
2022-10-12T23:56:07.936Z,9.40
2022-10-12T23:58:36.270Z,9.33
